Pagrindinis puslapis
METAR-TAF:

METAR-TAF

Oro uostai :

Loei, Tailandas

platuma: 17-27N, ilguma: 101-44E, Aukštis: 253 m

Dabartinis oras

Ataskaita buvo paskelbta 1 valandą ir 10 minutes, ne 23:00 UTC
Vėjas 3 kt iš Pietų/Pietryčių, svyruoja nuo Rytų/Pietryčių ir Pietų/Pietvakarių
Temperatūra 20°C
Drėgmė 83%
Slėgis 1017 hPa
Matomumas 10 km arba daugiau
Su prošvaistėmis ne aukštis 3000 ft

METAR: VTUL 022300Z 16003KT 120V200 9999 BKN030 20/17 Q1017 NOSIG

Laikas: 07:10 (00:10 UTC)

Prognozė

Ataskaita buvo paskelbta 1 valandą ir 10 minutes, ne 23:00 UTC
Prognozė galioja nuo 03 metu 00 UTC su 03 metu 24 UTC
Vėjas 5 kt iš Rytų/Pietryčių
Matomumas 10 km arba daugiau
Mažai debesys ne aukštis 3000 ft

TAF: VTUL 022300Z 0300/0324 12005KT 9999 FEW030

Orai ataskaitas ir orų prognozės (METAR, TAF).

turimą stotys yra geltonos ir raudonos taškus žemėlapyje.

Perkelti pele per norėdami pamatyti stoties vardą.

Tada spustelėkite, norėdami matyti oro stebėjimo ir prognozės.

Norėdami pakeisti žemėlapį: spustelėkite ant žalios mygtukų su juodo kryžiaus žemyn,; žalią mygtuką su brūkšneliu, jei norite nutolinti; arba žalių rodyklių gretimoms žemėlapius.


METAR-TAF: